Wadsworth, IL (60083)

3:42 PM CDT on August 24, 2016 (GMT -0500)
Orchard Bluff Lane | | Change Station

Elev 0 ft 42.44 °N, 87.95 °W | Updated 1 minute ago

Overcast
Overcast
81.7 °F
Feels Like 88 °F
N
1.2
Wind Variable Wind from WNW
Gusts 4.3 mph

Today
High -- | Low -- °F
--% Chance of Precip.
Yesterday
High -- | Low -- °F
Precip. -- in
Pressure 29.87 in
Visibility 10.0 miles
Clouds Scattered Clouds 2000 ft
Overcast 2900 ft
Heat Index 88 °F
Dew Point 75 °F
Humidity 81%
Rainfall 0.21 in
Snow Depth Not available.
6:08 AM 7:38 PM
Waning Gibbous, 53% visible
METAR KUGN 241955Z 23008KT 10SM SCT020 OVC029 26/22 A2990 RMK AO2 SLP113 T02610222
Pressure 29.87 in
Visibility 10.0 miles
Clouds Scattered Clouds 2000 ft
Overcast 2900 ft
Heat Index 88 °F
Dew Point 75 °F
Humidity 81%
Rainfall 0.21 in
Snow Depth Not available.
6:08 AM 7:38 PM
Waning Gibbous, 53% visible
METAR KUGN 241955Z 23008KT 10SM SCT020 OVC029 26/22 A2990 RMK AO2 SLP113 T02610222

10-Day Weather Forecast

Almanac

Astronomy

Aug. 24, 2016 Rise Set
Actual Time
Civil Twilight
Nautical Twilight
Astronomical Twilight
Moon
Length of Visible Light
Length of Day
Tomorrow will be .
, % of the Moon is Illuminated

Today's Extremes

State Highs State Lows

Community

WunderPhotos

Upload Photos

1,934,710 photos uploaded!

WunderBlog® & News

Nearby

Air Quality

  Air Quality AQ Index Pollutant
Not available.

Snow Depth

Station Depth Elevation

Earthquake Activity

City Distance Mag. Time & Date
Minimum magnitude displayed is 2.5.

Coastal Water Temperatures

Place Temperature

Stations

Nearby Weather Stations

Station Location Temp. Windchill Dew Point Humidity Wind Precip. Elev Updated Type
                   

Watches & Warnings

There are currently no watches in effect.